createdAt,value
2019-04-23T00:03:12.799Z,2.20
2019-04-23T00:05:48.651Z,3.40
2019-04-23T00:08:19.340Z,1.80
2019-04-23T00:11:05.664Z,3.00
2019-04-23T00:13:37.124Z,3.00
2019-04-23T00:18:53.745Z,1.00
2019-04-23T00:25:03.163Z,3.20
2019-04-23T00:30:40.075Z,3.00
2019-04-23T00:33:01.610Z,3.00
2019-04-23T00:35:25.779Z,1.00
2019-04-23T00:37:55.062Z,4.00
2019-04-23T00:40:25.882Z,1.00
2019-04-23T00:43:00.669Z,4.00
2019-04-23T00:45:33.298Z,1.00
2019-04-23T00:48:25.908Z,3.40
2019-04-23T00:50:52.231Z,1.80
2019-04-23T00:53:46.715Z,2.20
2019-04-23T00:56:21.821Z,3.60
2019-04-23T00:58:49.594Z,2.20
2019-04-23T01:01:00.493Z,4.00
2019-04-23T01:03:25.402Z,1.80
2019-04-23T01:06:04.606Z,3.00
2019-04-23T01:08:29.685Z,1.00
2019-04-23T01:16:11.267Z,2.20
2019-04-23T01:18:58.176Z,3.00
2019-04-23T01:24:14.126Z,3.00
2019-04-23T01:30:00.037Z,3.00
2019-04-23T01:32:25.712Z,3.00
2019-04-23T01:35:03.659Z,3.00
2019-04-23T01:37:45.129Z,3.60
2019-04-23T01:40:12.365Z,3.20
2019-04-23T01:45:25.960Z,3.00
2019-04-23T01:47:57.669Z,0.80
2019-04-23T01:50:30.075Z,3.00
2019-04-23T01:55:46.557Z,2.60
2019-04-23T02:01:08.736Z,3.60
2019-04-23T02:03:34.494Z,3.00
2019-04-23T02:08:32.338Z,1.00
2019-04-23T02:11:04.845Z,3.00
2019-04-23T02:13:56.783Z,1.80
2019-04-23T02:16:21.948Z,3.00
2019-04-23T02:18:56.779Z,3.00
2019-04-23T02:21:38.422Z,3.00
2019-04-23T02:27:24.898Z,3.00
2019-04-23T02:32:19.165Z,4.00
2019-04-23T02:40:01.332Z,0.00
2019-04-23T02:42:40.080Z,4.00
2019-04-23T02:44:45.219Z,3.00
2019-04-23T02:49:54.859Z,6.20
2019-04-23T02:55:08.406Z,4.00
2019-04-23T02:57:39.684Z,4.00
2019-04-23T03:00:26.241Z,3.00
2019-04-23T03:02:45.191Z,3.60
2019-04-23T03:05:19.884Z,4.00
2019-04-23T03:07:53.304Z,3.00
2019-04-23T03:10:41.984Z,3.00
2019-04-23T03:13:27.867Z,4.40
2019-04-23T03:16:08.360Z,4.00
2019-04-23T03:21:42.574Z,4.80
2019-04-23T03:29:55.001Z,3.80
2019-04-23T03:32:48.256Z,4.00
2019-04-23T03:35:30.964Z,4.00
2019-04-23T03:40:15.852Z,4.00
2019-04-23T03:42:47.363Z,4.00
2019-04-23T03:47:54.449Z,6.00
2019-04-23T03:53:10.901Z,4.00
2019-04-23T04:01:04.166Z,6.00
2019-04-23T04:06:05.498Z,4.80
2019-04-23T04:13:42.426Z,6.40
2019-04-23T04:21:45.850Z,4.80
2019-04-23T04:29:11.799Z,6.60
2019-04-23T04:37:32.091Z,6.60
2019-04-23T04:39:53.107Z,4.00
2019-04-23T04:43:00.436Z,4.00
2019-04-23T04:45:30.367Z,6.00
2019-04-23T04:47:44.531Z,3.00
2019-04-23T04:50:46.959Z,5.60
2019-04-23T04:53:24.938Z,6.00
2019-04-23T04:55:42.243Z,7.00
2019-04-23T04:58:07.295Z,6.00
2019-04-23T05:00:59.730Z,6.40
2019-04-23T05:06:01.443Z,3.20
2019-04-23T05:08:07.224Z,6.40
2019-04-23T05:10:49.714Z,6.60
2019-04-23T05:13:41.193Z,5.60
2019-04-23T05:15:50.219Z,7.00
2019-04-23T05:18:49.541Z,3.40
2019-04-23T05:21:18.171Z,7.00
2019-04-23T05:23:42.807Z,5.60
2019-04-23T05:26:08.506Z,4.40
2019-04-23T05:28:40.933Z,6.20
2019-04-23T05:31:08.597Z,7.00
2019-04-23T05:33:38.145Z,6.00
2019-04-23T05:36:22.712Z,7.00
2019-04-23T05:41:10.097Z,6.20
2019-04-23T05:46:09.766Z,6.40
2019-04-23T05:48:35.297Z,6.20
2019-04-23T05:51:11.503Z,6.40
2019-04-23T05:56:06.652Z,4.00
2019-04-23T05:58:36.900Z,5.20
2019-04-23T06:01:20.681Z,7.80
2019-04-23T06:03:29.351Z,5.20
2019-04-23T06:06:10.850Z,6.80
2019-04-23T06:08:38.496Z,9.00
2019-04-23T06:11:02.232Z,6.80
2019-04-23T06:13:35.955Z,6.60
2019-04-23T06:15:58.075Z,6.60
2019-04-23T06:18:49.731Z,6.20
2019-04-23T06:21:07.398Z,6.80
2019-04-23T06:23:37.939Z,6.20
2019-04-23T06:28:31.655Z,7.00
2019-04-23T06:31:01.633Z,9.00
2019-04-23T06:33:32.231Z,10.60
2019-04-23T06:36:08.612Z,9.20
2019-04-23T06:38:40.412Z,9.00
2019-04-23T06:41:13.584Z,9.00
2019-04-23T06:44:06.083Z,9.20
2019-04-23T06:46:30.710Z,10.00
2019-04-23T06:48:54.851Z,9.00
2019-04-23T06:51:27.187Z,8.20
2019-04-23T06:53:59.948Z,9.00
2019-04-23T06:56:26.524Z,9.20
2019-04-23T06:58:55.152Z,6.00
2019-04-23T07:01:19.131Z,8.40
2019-04-23T07:16:14.931Z,7.80
2019-04-23T07:18:46.466Z,9.20
2019-04-23T07:21:27.999Z,9.20
2019-04-23T07:23:54.441Z,9.00
2019-04-23T07:28:50.233Z,9.60
2019-04-23T07:33:52.239Z,8.20
2019-04-23T07:36:25.886Z,9.60
2019-04-23T07:42:03.078Z,3.60
2019-04-23T07:47:51.953Z,9.60
2019-04-23T07:50:23.342Z,8.20
2019-04-23T07:52:51.504Z,9.80
2019-04-23T07:55:19.415Z,8.20
2019-04-23T07:57:57.023Z,8.80
2019-04-23T08:00:20.525Z,6.80
2019-04-23T08:02:38.048Z,3.40
2019-04-23T08:05:29.295Z,9.80
2019-04-23T08:07:44.141Z,6.80
2019-04-23T08:10:17.055Z,9.20
2019-04-23T08:12:59.594Z,9.00
2019-04-23T08:15:18.151Z,7.00
2019-04-23T08:17:35.843Z,9.20
2019-04-23T08:20:29.946Z,10.00
2019-04-23T08:22:40.780Z,9.20
2019-04-23T08:25:17.857Z,10.00
2019-04-23T08:27:48.650Z,9.00
2019-04-23T08:30:21.983Z,7.80
2019-04-23T08:32:55.365Z,8.60
2019-04-23T08:35:13.796Z,9.00
2019-04-23T08:40:20.157Z,9.80
2019-04-23T08:45:22.701Z,11.60
2019-04-23T08:48:23.027Z,7.00
2019-04-23T08:50:47.839Z,12.00
2019-04-23T08:53:30.886Z,9.80
2019-04-23T08:55:49.945Z,9.20
2019-04-23T08:58:23.614Z,9.40
2019-04-23T09:00:52.626Z,9.60
2019-04-23T09:03:24.821Z,7.60
2019-04-23T09:05:53.002Z,9.80
2019-04-23T09:08:33.152Z,10.00
2019-04-23T09:10:50.133Z,10.40
2019-04-23T09:13:40.200Z,5.40
2019-04-23T09:18:16.675Z,9.80
2019-04-23T09:20:37.181Z,13.20
2019-04-23T09:23:21.121Z,10.40
2019-04-23T09:25:47.784Z,12.20
2019-04-23T09:28:24.139Z,8.00
2019-04-23T09:30:49.344Z,9.20
2019-04-23T09:33:46.885Z,13.60
2019-04-23T09:39:20.541Z,11.40
2019-04-23T09:42:08.901Z,12.40
2019-04-23T09:45:03.706Z,14.00
2019-04-23T09:47:50.484Z,11.20
2019-04-23T09:50:15.727Z,7.60
2019-04-23T09:52:59.061Z,12.20
2019-04-23T09:55:24.496Z,11.00
2019-04-23T09:57:51.964Z,9.00
2019-04-23T10:00:25.255Z,12.60
2019-04-23T10:02:34.025Z,10.00
2019-04-23T10:05:22.394Z,14.00
2019-04-23T10:07:47.130Z,10.00
2019-04-23T10:10:07.978Z,10.40
2019-04-23T10:12:39.987Z,7.20
2019-04-23T10:15:13.745Z,12.80
2019-04-23T10:17:38.023Z,11.80
2019-04-23T10:20:06.828Z,10.20
2019-04-23T10:22:37.593Z,11.80
2019-04-23T10:25:04.080Z,13.20
2019-04-23T10:27:32.921Z,12.00
2019-04-23T10:30:03.962Z,13.60
2019-04-23T10:32:35.871Z,13.80
2019-04-23T10:35:14.693Z,10.60
2019-04-23T10:37:46.046Z,12.00
2019-04-23T10:40:07.390Z,12.20
2019-04-23T10:42:35.669Z,10.80
2019-04-23T10:45:44.782Z,8.80
2019-04-23T10:48:41.484Z,13.60
2019-04-23T10:51:22.715Z,11.20
2019-04-23T10:53:52.251Z,12.60
2019-04-23T10:58:45.931Z,11.80
2019-04-23T11:01:35.821Z,10.80
2019-04-23T11:04:02.856Z,11.80
2019-04-23T11:06:23.602Z,15.20
2019-04-23T11:08:42.466Z,11.80
2019-04-23T11:11:25.501Z,11.00
2019-04-23T11:13:53.040Z,12.60
2019-04-23T11:21:23.616Z,12.00
2019-04-23T11:23:49.723Z,13.60
2019-04-23T11:26:25.649Z,12.60
2019-04-23T11:28:45.111Z,11.20
2019-04-23T11:31:31.217Z,13.20
2019-04-23T11:34:19.977Z,14.00
2019-04-23T11:36:49.831Z,11.40
2019-04-23T11:38:58.450Z,12.40
2019-04-23T11:41:36.917Z,11.60
2019-04-23T11:43:58.895Z,14.00
2019-04-23T11:46:51.303Z,14.80
2019-04-23T11:49:22.537Z,14.00
2019-04-23T11:51:46.040Z,11.40
2019-04-23T11:54:01.645Z,10.80
2019-04-23T11:56:51.480Z,14.40
2019-04-23T11:59:04.735Z,12.20
2019-04-23T12:02:00.736Z,12.20
2019-04-23T12:05:20.463Z,13.00
2019-04-23T12:08:18.829Z,13.20
2019-04-23T12:10:39.105Z,13.40
2019-04-23T12:13:10.514Z,11.20
2019-04-23T12:15:32.726Z,14.00
2019-04-23T12:18:19.488Z,13.00
2019-04-23T12:20:32.054Z,11.00
2019-04-23T12:23:28.201Z,12.60
2019-04-23T12:27:53.954Z,12.00
2019-04-23T12:35:38.996Z,12.80
2019-04-23T12:38:23.925Z,12.60
2019-04-23T12:40:56.330Z,13.40
2019-04-23T12:43:14.546Z,13.20
2019-04-23T12:45:50.466Z,11.60
2019-04-23T12:48:28.203Z,9.60
2019-04-23T12:50:49.976Z,12.60
2019-04-23T12:53:20.220Z,11.40
2019-04-23T12:55:43.845Z,8.20
2019-04-23T12:58:19.282Z,9.40
2019-04-23T13:00:51.559Z,11.00
2019-04-23T13:05:37.488Z,10.00
2019-04-23T13:08:31.958Z,12.00
2019-04-23T13:10:45.384Z,10.80
2019-04-23T13:13:25.714Z,10.00
2019-04-23T13:15:48.853Z,10.00
2019-04-23T13:18:26.842Z,10.60
2019-04-23T13:20:46.825Z,11.00
2019-04-23T13:23:22.144Z,10.00
2019-04-23T13:26:11.749Z,11.20
2019-04-23T13:28:49.598Z,10.80
2019-04-23T13:31:34.678Z,11.40
2019-04-23T13:36:32.296Z,9.40
2019-04-23T13:38:47.254Z,10.60
2019-04-23T13:41:27.891Z,11.00
2019-04-23T13:46:28.124Z,10.60
2019-04-23T13:48:53.655Z,11.80
2019-04-23T13:51:26.006Z,11.40
2019-04-23T13:58:59.833Z,12.00
2019-04-23T14:04:14.121Z,11.40
2019-04-23T14:09:34.373Z,10.60
2019-04-23T14:11:38.633Z,10.00
2019-04-23T14:16:34.084Z,12.40
2019-04-23T14:26:38.412Z,12.40
2019-04-23T14:28:59.300Z,12.00
2019-04-23T14:31:28.457Z,10.20
2019-04-23T14:34:04.862Z,12.40
2019-04-23T14:36:39.342Z,0.20
2019-04-23T14:41:26.222Z,11.20
2019-04-23T14:44:10.793Z,12.20
2019-04-23T14:49:04.277Z,12.80
2019-04-23T14:51:38.842Z,11.40
2019-04-23T14:54:08.446Z,10.60
2019-04-23T14:56:41.963Z,11.60
2019-04-23T15:01:39.881Z,5.60
2019-04-23T15:04:01.604Z,10.00
2019-04-23T15:09:19.685Z,15.60
2019-04-23T15:11:45.332Z,11.40
2019-04-23T15:14:10.002Z,13.20
2019-04-23T15:19:28.530Z,12.00
2019-04-23T15:24:32.784Z,11.80
2019-04-23T15:29:06.999Z,9.80
2019-04-23T15:31:55.609Z,13.00
2019-04-23T15:34:20.333Z,12.00
2019-04-23T15:37:01.094Z,12.20
2019-04-23T15:41:59.266Z,12.40
2019-04-23T15:44:16.781Z,11.80
2019-04-23T15:46:56.573Z,11.80
2019-04-23T15:49:28.872Z,11.20
2019-04-23T15:54:25.294Z,14.60
2019-04-23T15:59:27.609Z,12.40
2019-04-23T16:01:41.100Z,13.00
2019-04-23T16:03:53.758Z,11.00
2019-04-23T16:06:26.334Z,12.60
2019-04-23T16:09:09.669Z,12.80
2019-04-23T16:14:22.485Z,15.00
2019-04-23T16:22:07.251Z,12.80
2019-04-23T16:24:43.299Z,13.20
2019-04-23T16:32:26.381Z,16.20
2019-04-23T16:35:15.579Z,10.40
2019-04-23T16:37:38.851Z,12.80
2019-04-23T16:40:19.898Z,12.40
2019-04-23T16:42:47.849Z,12.40
2019-04-23T16:45:29.361Z,14.60
2019-04-23T16:47:46.704Z,14.00
2019-04-23T16:50:18.267Z,12.20
2019-04-23T16:52:53.685Z,10.20
2019-04-23T16:55:16.645Z,11.80
2019-04-23T16:57:54.545Z,13.00
2019-04-23T17:00:44.432Z,15.00
2019-04-23T17:02:54.970Z,15.20
2019-04-23T17:08:09.515Z,13.20
2019-04-23T17:10:23.358Z,16.60
2019-04-23T17:12:51.954Z,11.40
2019-04-23T17:15:21.186Z,12.00
2019-04-23T17:17:46.691Z,16.20
2019-04-23T17:20:16.686Z,13.20
2019-04-23T17:22:46.891Z,12.00
2019-04-23T17:25:26.181Z,12.60
2019-04-23T17:27:59.042Z,13.20
2019-04-23T17:35:55.089Z,13.80
2019-04-23T17:38:26.411Z,14.00
2019-04-23T17:41:01.929Z,15.00
2019-04-23T17:43:26.893Z,15.00
2019-04-23T17:48:52.901Z,13.20
2019-04-23T17:51:17.726Z,12.20
2019-04-23T17:53:50.146Z,11.60
2019-04-23T17:56:27.255Z,17.00
2019-04-23T17:58:52.273Z,16.20
2019-04-23T18:01:20.155Z,12.60
2019-04-23T18:03:57.384Z,13.80
2019-04-23T18:11:25.009Z,14.00
2019-04-23T18:13:57.120Z,13.60
2019-04-23T18:16:35.408Z,14.00
2019-04-23T18:19:03.455Z,13.40
2019-04-23T18:30:15.478Z,16.00
2019-04-23T18:35:34.005Z,10.80
2019-04-23T18:38:31.950Z,13.00
2019-04-23T18:44:16.310Z,16.80
2019-04-23T18:46:50.599Z,15.80
2019-04-23T18:52:06.923Z,13.40
2019-04-23T18:54:48.889Z,12.20
2019-04-23T18:57:48.550Z,15.00
2019-04-23T19:03:21.770Z,13.00
2019-04-23T19:06:15.005Z,13.40
2019-04-23T19:12:01.340Z,15.00
2019-04-23T19:17:36.033Z,9.00
2019-04-23T19:22:58.773Z,17.20
2019-04-23T19:25:14.519Z,13.40
2019-04-23T19:28:09.132Z,13.40
2019-04-23T19:31:16.300Z,13.40
2019-04-23T19:50:17.555Z,15.40
2019-04-23T19:52:57.411Z,12.40
2019-04-23T19:55:11.433Z,17.60
2019-04-23T19:57:42.360Z,14.60
2019-04-23T20:00:02.720Z,16.60
2019-04-23T20:03:11.105Z,15.00
2019-04-23T20:05:35.605Z,12.00
2019-04-23T20:08:27.820Z,13.40
2019-04-23T20:10:47.155Z,15.00
2019-04-23T20:13:41.111Z,16.00
2019-04-23T20:16:19.503Z,14.60
2019-04-23T20:18:42.868Z,19.40
2019-04-23T20:20:59.046Z,15.00
2019-04-23T20:31:44.984Z,13.20
2019-04-23T20:38:00.711Z,13.00
2019-04-23T20:40:08.673Z,17.20
2019-04-23T20:42:53.025Z,16.80
2019-04-23T20:48:16.051Z,16.80
2019-04-23T20:50:44.423Z,21.00
2019-04-23T20:53:31.028Z,18.40
2019-04-23T21:04:39.764Z,19.80
2019-04-23T21:06:59.166Z,15.00
2019-04-23T21:12:50.175Z,18.00
2019-04-23T21:17:38.450Z,22.60
2019-04-23T21:20:08.184Z,19.40
2019-04-23T21:28:26.649Z,18.00
2019-04-23T21:31:19.714Z,18.00
2019-04-23T21:33:46.129Z,20.00
2019-04-23T21:42:16.222Z,19.00
2019-04-23T21:44:47.545Z,21.60
2019-04-23T21:47:14.688Z,19.40
2019-04-23T21:49:57.972Z,21.60
2019-04-23T21:52:13.440Z,20.20
2019-04-23T21:57:46.406Z,21.80
2019-04-23T22:00:02.556Z,18.60
2019-04-23T22:03:02.567Z,18.00
2019-04-23T22:05:39.992Z,18.20
2019-04-23T22:10:26.184Z,16.80
2019-04-23T22:18:56.101Z,19.80
2019-04-23T22:24:07.194Z,20.20
2019-04-23T22:29:45.362Z,18.60
2019-04-23T22:32:15.107Z,21.00
2019-04-23T22:34:51.832Z,11.80
2019-04-23T22:40:02.633Z,19.20
2019-04-23T22:42:57.414Z,23.20
2019-04-23T22:45:21.055Z,22.40
2019-04-23T22:47:56.134Z,15.60
2019-04-23T22:50:47.271Z,14.60
2019-04-23T22:53:08.144Z,18.60
2019-04-23T22:55:49.412Z,16.80
2019-04-23T23:11:22.610Z,17.20
2019-04-23T23:16:46.561Z,12.00
2019-04-23T23:19:45.571Z,9.80
2019-04-23T23:22:18.467Z,11.60
2019-04-23T23:30:05.961Z,7.40
2019-04-23T23:32:31.305Z,11.80
2019-04-23T23:35:07.903Z,10.00
2019-04-23T23:37:42.122Z,9.20
2019-04-23T23:40:21.890Z,8.60
2019-04-23T23:45:40.864Z,10.20
2019-04-23T23:48:06.615Z,9.20
2019-04-23T23:53:12.325Z,10.80
2019-04-23T23:56:01.773Z,8.20
